Time;durP1;ratioP1;P1;durP2;ratioP2;P2;SDS_P1;SDS_P2;PMS_P1;PMS_P2;Temp;Humidity;BMP_temperature;BMP_pressure;BME280_temperature;BME280_humidity;BME280_pressure;Samples;Min_cycle;Max_cycle;Signal;HPM_P1;HPM_P2
2021/03/07 00:01:13;;;;;;;;;;;;;;;18.62;65.47;101677.91;5070028;28;1523;-71
2021/03/07 00:03:40;;;;;;;;;;;;;;;18.60;65.68;101670.06;5073648;28;1902;-72
2021/03/07 00:06:06;;;;;;;;;;;;;;;18.61;65.62;101668.28;5110914;28;1259;-71
2021/03/07 00:08:37;;;;;;;;;;;;;;;18.60;65.36;101664.78;5092170;28;1371;-70
2021/03/07 00:11:20;;;;;;;;;;;;;;;18.61;65.56;101663.84;5110511;28;1525;-71
2021/03/07 00:13:47;;;;;;;;;;;;;;;18.59;65.18;101664.84;5110544;28;837;-71
2021/03/07 00:16:13;;;;;;;;;;;;;;;18.59;65.13;101656.94;5110418;28;1176;-72
2021/03/07 00:18:39;;;;;;;;;;;;;;;18.60;65.29;101650.75;5110227;28;818;-71
2021/03/07 00:21:06;;;;;;;;;;;;;;;18.59;65.39;101651.66;5091787;28;1337;-71
2021/03/07 00:23:32;;;;;;;;;;;;;;;18.58;65.42;101644.66;5110113;28;1980;-71
2021/03/07 00:25:58;;;;;;;;;;;;;;;18.57;65.52;101651.72;5092012;28;1232;-71
2021/03/07 00:28:24;;;;;;;;;;;;;;;18.56;65.50;101650.00;5092170;28;1203;-72
2021/03/07 00:30:51;;;;;;;;;;;;;;;18.54;65.39;101650.06;5091819;28;1649;-71
2021/03/07 00:33:17;;;;;;;;;;;;;;;18.56;65.63;101652.66;5092140;28;1119;-70
2021/03/07 00:35:43;;;;;;;;;;;;;;;18.52;65.32;101651.91;5110114;28;1236;-70
2021/03/07 00:38:09;;;;;;;;;;;;;;;18.53;65.46;101642.22;5110620;28;1177;-71
2021/03/07 00:40:36;;;;;;;;;;;;;;;18.50;65.53;101640.56;5109955;28;1204;-71
2021/03/07 00:43:02;;;;;;;;;;;;;;;18.51;65.59;101639.63;5074700;28;1980;-70
2021/03/07 00:45:28;;;;;;;;;;;;;;;18.51;65.65;101646.72;5109990;28;1244;-70
2021/03/07 00:47:55;;;;;;;;;;;;;;;18.51;65.65;101644.06;5110408;28;1148;-70
2021/03/07 00:50:23;;;;;;;;;;;;;;;18.52;65.65;101643.13;5109577;28;1216;-70
2021/03/07 00:52:54;;;;;;;;;;;;;;;18.47;65.69;101640.66;5092081;28;1172;-70
2021/03/07 00:55:20;;;;;;;;;;;;;;;18.48;65.77;101638.91;5109631;28;1318;-70
2021/03/07 00:57:47;;;;;;;;;;;;;;;18.50;65.72;101639.72;5091466;28;1173;-69
2021/03/07 01:00:15;;;;;;;;;;;;;;;18.48;65.70;101625.69;5109568;28;1354;-70
2021/03/07 01:02:41;;;;;;;;;;;;;;;18.48;65.70;101625.69;5109085;28;1914;-70
2021/03/07 01:05:08;;;;;;;;;;;;;;;18.46;65.84;101631.03;5109735;28;1321;-71
2021/03/07 01:07:35;;;;;;;;;;;;;;;18.45;65.83;101626.66;5091235;28;850;-71
2021/03/07 01:10:06;;;;;;;;;;;;;;;18.47;65.77;101623.97;5091172;28;1335;-70
2021/03/07 01:12:32;;;;;;;;;;;;;;;18.46;65.63;101619.59;5109772;28;1377;-70
2021/03/07 01:14:58;;;;;;;;;;;;;;;18.46;65.71;101616.97;5091044;28;1260;-72
2021/03/07 01:17:25;;;;;;;;;;;;;;;18.44;65.90;101622.34;5109557;28;1124;-71
2021/03/07 01:19:51;;;;;;;;;;;;;;;18.44;66.09;101622.34;5109292;28;809;-72
2021/03/07 01:22:17;;;;;;;;;;;;;;;18.46;65.87;101615.19;5109414;28;1986;-72
2021/03/07 01:24:44;;;;;;;;;;;;;;;18.46;65.94;101620.47;5109148;28;785;-72
2021/03/07 01:27:10;;;;;;;;;;;;;;;18.44;65.96;101617.06;5109382;28;1244;-71
2021/03/07 01:29:37;;;;;;;;;;;;;;;18.43;65.96;101622.38;5109404;28;812;-71
2021/03/07 01:32:03;;;;;;;;;;;;;;;18.41;66.10;101618.97;5109482;28;1239;-71
2021/03/07 01:34:29;;;;;;;;;;;;;;;18.40;66.07;101615.47;5090953;28;1102;-71
2021/03/07 01:36:55;;;;;;;;;;;;;;;18.42;66.00;101621.50;5112976;28;1244;-71
2021/03/07 01:39:22;;;;;;;;;;;;;;;18.42;65.95;101615.41;5113593;28;1010;-71
2021/03/07 01:41:48;;;;;;;;;;;;;;;18.38;66.07;101616.44;5113327;28;1329;-70
2021/03/07 01:44:15;;;;;;;;;;;;;;;18.41;65.97;101611.03;5113214;28;1910;-70
2021/03/07 01:46:41;;;;;;;;;;;;;;;18.40;66.05;101609.31;5113074;28;1208;-71
2021/03/07 01:49:08;;;;;;;;;;;;;;;18.37;66.21;101606.81;5113476;28;1055;-70
2021/03/07 01:51:34;;;;;;;;;;;;;;;18.39;66.04;101605.81;5113006;28;1231;-70
2021/03/07 01:54:01;;;;;;;;;;;;;;;18.35;66.07;101601.63;5094876;28;789;-71
2021/03/07 01:56:28;;;;;;;;;;;;;;;18.38;66.01;101596.22;5112959;28;1314;-71
2021/03/07 01:58:57;;;;;;;;;;;;;;;18.36;66.11;101594.56;5113292;28;854;-71
2021/03/07 02:01:23;;;;;;;;;;;;;;;18.37;66.05;101589.22;5094773;28;1363;-71
2021/03/07 02:03:50;;;;;;;;;;;;;;;18.35;66.09;101590.19;5112904;28;1906;-71
2021/03/07 02:06:17;;;;;;;;;;;;;;;18.36;66.22;101582.19;5113084;28;1227;-71
2021/03/07 02:08:43;;;;;;;;;;;;;;;18.33;66.13;101573.59;5094900;28;806;-71
2021/03/07 02:11:10;;;;;;;;;;;;;;;18.34;66.06;101567.38;5112663;28;1328;-71
2021/03/07 02:13:37;;;;;;;;;;;;;;;18.35;66.02;101572.59;5112784;28;833;-71
2021/03/07 02:16:12;;;;;;;;;;;;;;;18.35;66.09;101556.78;5094712;28;1400;-71
2021/03/07 02:18:53;;;;;;;;;;;;;;;18.32;66.07;101554.25;5112614;28;861;-71
2021/03/07 02:21:22;;;;;;;;;;;;;;;18.33;66.00;101550.69;5112541;28;1236;-72
2021/03/07 02:24:02;;;;;;;;;;;;;;;18.35;65.97;101548.00;5112402;28;1911;-71
2021/03/07 02:26:29;;;;;;;;;;;;;;;18.30;66.23;101544.72;5112596;28;1231;-70
2021/03/07 02:28:55;;;;;;;;;;;;;;;18.30;66.07;101540.25;5094035;28;1376;-71
2021/03/07 02:31:23;;;;;;;;;;;;;;;18.30;66.12;101528.88;5112590;28;1243;-72
2021/03/07 02:33:54;;;;;;;;;;;;;;;18.31;66.16;101522.66;5112233;28;1027;-72
2021/03/07 02:36:23;;;;;;;;;;;;;;;18.31;65.98;101528.81;5112513;28;1326;-71
2021/03/07 02:38:50;;;;;;;;;;;;;;;18.29;66.13;101528.03;5112658;28;842;-73
2021/03/07 02:41:17;;;;;;;;;;;;;;;18.30;66.02;101520.97;5093579;28;1597;-72
2021/03/07 02:43:45;;;;;;;;;;;;;;;18.28;66.12;101517.53;5093718;28;1914;-70
2021/03/07 02:46:14;;;;;;;;;;;;;;;18.31;66.03;101509.47;5111862;28;1311;-71
2021/03/07 02:48:42;;;;;;;;;;;;;;;18.29;66.16;101513.97;5111991;28;833;-71
2021/03/07 02:51:10;;;;;;;;;;;;;;;18.28;66.14;101517.53;5110543;28;1318;-71
2021/03/07 02:53:37;;;;;;;;;;;;;;;18.26;66.11;101504.41;5111912;28;1141;-70
2021/03/07 02:56:05;;;;;;;;;;;;;;;18.28;66.10;101499.91;5093716;28;1381;-71
2021/03/07 02:58:32;;;;;;;;;;;;;;;18.29;66.09;101500.78;5111727;28;850;-71
2021/03/07 03:01:00;;;;;;;;;;;;;;;18.26;66.05;101495.63;5111717;28;1330;-71
2021/03/07 03:03:29;;;;;;;;;;;;;;;18.27;66.10;101490.28;5110329;28;1906;-72
2021/03/07 03:05:56;;;;;;;;;;;;;;;18.26;66.32;101495.63;5111624;28;1318;-72
2021/03/07 03:08:23;;;;;;;;;;;;;;;18.24;66.17;101492.22;5111947;28;1086;-71
2021/03/07 03:10:50;;;;;;;;;;;;;;;18.25;66.14;101486.88;5093605;28;1397;-71
2021/03/07 03:13:28;;;;;;;;;;;;;;;18.29;65.97;101485.81;5111823;28;781;-71
2021/03/07 03:15:55;;;;;;;;;;;;;;;18.25;66.06;101484.22;5093426;28;1354;-71
2021/03/07 03:18:23;;;;;;;;;;;;;;;18.27;66.23;101482.38;5111249;28;916;-71
2021/03/07 03:20:51;;;;;;;;;;;;;;;18.24;66.10;101479.88;5093166;28;1248;-71
2021/03/07 03:23:18;;;;;;;;;;;;;;;18.26;66.02;101477.19;5111403;28;1964;-71
2021/03/07 03:25:47;;;;;;;;;;;;;;;18.26;66.16;101475.41;5093191;28;1237;-71
2021/03/07 03:28:14;;;;;;;;;;;;;;;18.23;66.35;101479.94;5111963;28;1211;-71
2021/03/07 03:30:40;;;;;;;;;;;;;;;18.24;66.11;101481.69;5111471;28;1318;-71
2021/03/07 03:33:07;;;;;;;;;;;;;;;18.25;66.18;101486.00;5093292;28;1333;-71
2021/03/07 03:35:33;;;;;;;;;;;;;;;18.27;66.08;101482.38;5093222;28;1260;-71
2021/03/07 03:37:59;;;;;;;;;;;;;;;18.27;66.19;101481.53;5092726;28;1170;-71
2021/03/07 03:40:27;;;;;;;;;;;;;;;18.23;66.11;101478.19;5111234;28;1233;-72
2021/03/07 03:42:56;;;;;;;;;;;;;;;18.24;66.12;101486.94;5093175;28;1914;-72
2021/03/07 03:45:24;;;;;;;;;;;;;;;18.26;66.22;101487.72;5092992;28;1180;-72
2021/03/07 03:47:55;;;;;;;;;;;;;;;18.23;66.10;101485.22;5076087;28;1343;-71
2021/03/07 03:50:23;;;;;;;;;;;;;;;18.22;66.11;101480.84;5111195;28;1275;-73
2021/03/07 03:52:51;;;;;;;;;;;;;;;18.23;66.11;101480.81;5110831;28;1161;-72
2021/03/07 03:55:30;;;;;;;;;;;;;;;18.24;66.10;101481.69;5110779;28;1338;-73
2021/03/07 03:58:04;;;;;;;;;;;;;;;18.23;66.19;101478.19;5110679;28;1244;-72
2021/03/07 04:00:32;;;;;;;;;;;;;;;18.22;66.08;101472.94;5111038;28;1272;-73
2021/03/07 04:02:59;;;;;;;;;;;;;;;18.22;66.20;101472.94;5092575;28;1977;-73
2021/03/07 04:05:27;;;;;;;;;;;;;;;18.21;66.15;101471.25;5110808;28;1323;-73
2021/03/07 04:07:53;;;;;;;;;;;;;;;18.22;66.12;101468.53;5092467;28;1067;-73
2021/03/07 04:10:21;;;;;;;;;;;;;;;18.22;66.25;101467.69;5092122;28;1706;-72
2021/03/07 04:12:48;;;;;;;;;;;;;;;18.19;66.04;101457.25;5111091;28;1128;-73
2021/03/07 04:15:16;;;;;;;;;;;;;;;18.22;66.14;101465.03;5092737;28;1232;-73
2021/03/07 04:17:44;;;;;;;;;;;;;;;18.21;66.06;101461.53;5110980;28;1073;-72
2021/03/07 04:20:10;;;;;;;;;;;;;;;18.21;66.08;101463.34;5110110;28;1232;-73
2021/03/07 04:22:37;;;;;;;;;;;;;;;18.20;66.19;101459.84;5110581;28;1976;-73
2021/03/07 04:25:04;;;;;;;;;;;;;;;18.15;66.25;101455.69;5110609;28;1224;-73
2021/03/07 04:27:31;;;;;;;;;;;;;;;18.20;66.23;101458.97;5110934;28;946;-73
2021/03/07 04:29:58;;;;;;;;;;;;;;;18.17;66.16;101454.72;5110300;28;865;-73
2021/03/07 04:32:25;;;;;;;;;;;;;;;18.18;66.00;101460.84;5110522;28;1054;-73
2021/03/07 04:34:51;;;;;;;;;;;;;;;18.21;66.09;101455.44;5110544;28;837;-72
2021/03/07 04:37:18;;;;;;;;;;;;;;;18.19;66.06;101457.25;5110330;28;1224;-73
2021/03/07 04:39:44;;;;;;;;;;;;;;;18.19;66.08;101457.25;5109992;28;967;-72
2021/03/07 04:42:11;;;;;;;;;;;;;;;18.19;65.97;101452.00;5110001;28;1259;-72
2021/03/07 04:44:38;;;;;;;;;;;;;;;18.17;66.06;101461.75;5091418;28;1910;-72
2021/03/07 04:47:04;;;;;;;;;;;;;;;18.17;66.21;101456.47;5091378;28;1268;-72
2021/03/07 04:49:31;;;;;;;;;;;;;;;18.17;66.19;101469.66;5109669;28;826;-72
2021/03/07 04:51:57;;;;;;;;;;;;;;;18.17;66.17;101470.53;5110161;28;1256;-72
2021/03/07 04:54:24;;;;;;;;;;;;;;;18.18;65.98;101466.13;5091475;28;1181;-72
2021/03/07 04:56:51;;;;;;;;;;;;;;;18.19;65.96;101467.81;5109703;28;1587;-71
2021/03/07 04:59:17;;;;;;;;;;;;;;;18.18;66.00;101460.84;5109772;28;797;-70
2021/03/07 05:01:43;;;;;;;;;;;;;;;18.17;66.01;101469.66;5091489;28;1228;-69
2021/03/07 05:04:10;;;;;;;;;;;;;;;18.15;65.99;101463.63;5109529;28;1906;-69
2021/03/07 05:06:42;;;;;;;;;;;;;;;18.17;66.21;101469.66;5109435;28;1338;-70
2021/03/07 05:09:09;;;;;;;;;;;;;;;18.17;65.98;101470.53;5109491;28;1083;-70
2021/03/07 05:11:36;;;;;;;;;;;;;;;18.15;66.03;101466.25;5108918;28;1631;-71
2021/03/07 05:14:03;;;;;;;;;;;;;;;18.17;65.88;101459.13;5109498;28;1038;-71
2021/03/07 05:16:29;;;;;;;;;;;;;;;18.18;65.99;101471.38;5109665;28;1358;-71
2021/03/07 05:18:56;;;;;;;;;;;;;;;18.18;65.99;101466.94;5091597;28;785;-71
2021/03/07 05:21:23;;;;;;;;;;;;;;;18.16;65.80;101463.53;5109546;28;1228;-70
2021/03/07 05:23:49;;;;;;;;;;;;;;;18.16;65.91;101458.25;5109643;28;1909;-70
2021/03/07 05:26:16;;;;;;;;;;;;;;;18.15;65.81;101466.25;5091070;28;1319;-71
2021/03/07 05:28:42;;;;;;;;;;;;;;;18.14;65.87;101468.03;5109631;28;814;-71
2021/03/07 05:31:08;;;;;;;;;;;;;;;18.15;65.87;101463.63;5074392;28;1278;-69
2021/03/07 05:33:35;;;;;;;;;;;;;;;18.16;65.71;101465.31;5109470;28;799;-71
2021/03/07 05:36:01;;;;;;;;;;;;;;;18.12;65.84;101459.31;5109508;28;1335;-72
2021/03/07 05:38:27;;;;;;;;;;;;;;;18.13;65.90;101453.13;5109301;28;868;-71
2021/03/07 05:40:54;;;;;;;;;;;;;;;18.15;66.02;101458.34;5109524;28;1224;-72
2021/03/07 05:43:22;;;;;;;;;;;;;;;18.15;65.86;101458.34;5109197;28;1906;-72
2021/03/07 05:45:49;;;;;;;;;;;;;;;18.14;65.79;101459.25;5090660;28;1305;-71
2021/03/07 05:48:16;;;;;;;;;;;;;;;18.13;65.88;101445.22;5109845;28;936;-72
2021/03/07 05:50:43;;;;;;;;;;;;;;;18.12;65.75;101445.28;5107543;28;1228;-72
2021/03/07 05:53:10;;;;;;;;;;;;;;;18.14;65.94;101449.56;5109714;28;1083;-71
2021/03/07 05:55:37;;;;;;;;;;;;;;;18.13;65.76;101446.97;5109075;28;1320;-71
2021/03/07 05:58:04;;;;;;;;;;;;;;;18.14;65.95;101448.72;5108906;28;1047;-72
2021/03/07 06:00:31;;;;;;;;;;;;;;;18.13;65.74;101446.97;5109053;28;1192;-71
2021/03/07 06:02:58;;;;;;;;;;;;;;;18.12;65.76;101440.84;5109440;28;1910;-71
2021/03/07 06:05:24;;;;;;;;;;;;;;;18.12;65.67;101445.28;5108768;28;1306;-71
2021/03/07 06:07:50;;;;;;;;;;;;;;;18.11;65.89;101436.50;5107349;28;1419;-72
2021/03/07 06:10:21;;;;;;;;;;;;;;;18.03;66.53;101434.19;5092401;28;1267;-72
2021/03/07 06:12:56;;;;;;;;;;;;;;;18.07;66.36;101428.78;5087679;28;1357;-72
2021/03/07 06:15:42;;;;;;;;;;;;;;;18.10;66.21;101433.94;5087798;28;1287;-70
2021/03/07 06:18:19;;;;;;;;;;;;;;;18.10;66.05;101431.28;5087886;28;1106;-72
2021/03/07 06:20:46;;;;;;;;;;;;;;;18.11;65.92;101433.03;5069217;28;1262;-72
2021/03/07 06:23:13;;;;;;;;;;;;;;;18.10;65.96;101431.28;5091354;28;1905;-72
2021/03/07 06:25:49;;;;;;;;;;;;;;;18.09;65.96;101427.78;5072727;28;1286;-71
2021/03/07 06:28:23;;;;;;;;;;;;;;;18.10;65.98;101428.66;5090933;28;1090;-73
2021/03/07 06:30:50;;;;;;;;;;;;;;;18.07;65.98;101434.94;5091154;28;1215;-71
2021/03/07 06:33:31;;;;;;;;;;;;;;;18.10;66.16;101439.19;5091395;28;938;-71
2021/03/07 06:36:18;;;;;;;;;;;;;;;18.09;66.28;101440.97;5090991;28;1192;-71
2021/03/07 06:38:58;;;;;;;;;;;;;;;18.08;66.27;101433.16;5072613;28;1163;-72
2021/03/07 06:41:26;;;;;;;;;;;;;;;18.07;66.13;101434.94;5072556;28;1472;-71
2021/03/07 06:44:05;;;;;;;;;;;;;;;18.09;66.14;101450.69;5090769;28;1906;-71
2021/03/07 06:46:32;;;;;;;;;;;;;;;18.03;66.49;101444.75;5072582;28;1350;-71
2021/03/07 06:49:00;;;;;;;;;;;;;;;18.09;66.10;101446.25;5072886;28;801;-70
2021/03/07 06:51:30;;;;;;;;;;;;;;;18.11;66.32;101448.84;5090882;28;1259;-70
2021/03/07 06:53:58;;;;;;;;;;;;;;;18.15;65.99;101450.44;5090895;28;778;-72
2021/03/07 06:56:41;;;;;;;;;;;;;;;18.14;66.18;101446.94;5090466;28;1220;-72
2021/03/07 06:59:13;;;;;;;;;;;;;;;18.16;65.96;101449.47;5090552;28;872;-71
2021/03/07 07:01:41;;;;;;;;;;;;;;;18.15;65.93;101450.44;5090620;28;1233;-72
2021/03/07 07:04:08;;;;;;;;;;;;;;;18.15;66.07;101445.97;5090668;28;1911;-70
2021/03/07 07:06:35;;;;;;;;;;;;;;;18.16;65.92;101441.56;5090580;28;1208;-73
2021/03/07 07:09:02;;;;;;;;;;;;;;;18.14;65.99;101451.34;5098379;28;1577;-73
2021/03/07 07:11:40;;;;;;;;;;;;;;;18.14;65.83;101449.56;5092091;28;1764;-71
2021/03/07 07:14:06;;;;;;;;;;;;;;;18.17;66.00;101451.22;5085787;28;1268;-70
2021/03/07 07:16:33;;;;;;;;;;;;;;;18.15;65.92;101450.44;5087788;28;1767;-70
2021/03/07 07:19:00;;;;;;;;;;;;;;;18.13;66.05;101446.97;5083063;28;1331;-70
2021/03/07 07:21:27;;;;;;;;;;;;;;;18.12;65.80;101446.13;5042203;28;1338;-71
2021/03/07 07:23:53;;;;;;;;;;;;;;;18.15;65.92;101445.97;5068699;28;1917;-71
2021/03/07 07:26:39;;;;;;;;;;;;;;;18.15;66.02;101438.06;5084712;28;1445;-73
2021/03/07 07:29:06;;;;;;;;;;;;;;;18.18;66.00;101445.03;5071094;28;798;-70
2021/03/07 07:31:36;;;;;;;;;;;;;;;18.18;65.67;101447.66;5088348;28;1212;-71
2021/03/07 07:34:08;;;;;;;;;;;;;;;18.13;65.88;101449.63;5068722;28;1327;-73
2021/03/07 07:36:40;;;;;;;;;;;;;;;18.08;66.25;101448.97;5088546;28;1350;-73
2021/03/07 07:39:09;;;;;;;;;;;;;;;18.11;66.11;101448.84;5093626;28;1384;-76
2021/03/07 07:41:39;;;;;;;;;;;;;;;18.08;66.40;101448.97;5108082;28;1521;-71
2021/03/07 07:44:11;;;;;;;;;;;;;;;18.10;66.18;101453.25;5109005;28;1973;-72
2021/03/07 07:46:56;;;;;;;;;;;;;;;18.08;66.04;101448.97;5109768;28;1248;-71
2021/03/07 07:49:42;;;;;;;;;;;;;;;18.09;65.84;101445.41;5110318;28;1115;-74
2021/03/07 07:52:23;;;;;;;;;;;;;;;18.07;66.18;101448.09;5110452;28;1240;-73
2021/03/07 07:55:04;;;;;;;;;;;;;;;18.07;66.02;101444.59;5110085;28;814;-72
2021/03/07 07:57:31;;;;;;;;;;;;;;;18.05;66.26;101443.81;5109925;28;1104;-72
2021/03/07 07:59:58;;;;;;;;;;;;;;;18.07;65.99;101447.25;5109826;28;1088;-71
2021/03/07 08:02:42;;;;;;;;;;;;;;;18.08;66.25;101459.50;5109090;28;1374;-72
2021/03/07 08:05:21;;;;;;;;;;;;;;;18.08;66.23;101455.09;5109130;28;1886;-71
2021/03/07 08:08:00;;;;;;;;;;;;;;;18.05;66.41;101459.66;5088640;28;1479;-72
2021/03/07 08:10:36;;;;;;;;;;;;;;;18.06;66.32;101461.34;5077139;28;1366;-72
2021/03/07 08:13:03;;;;;;;;;;;;;;;18.03;66.36;101457.06;5089662;28;1872;-72
2021/03/07 08:15:31;;;;;;;;;;;;;;;18.06;66.26;101469.25;5089451;28;1236;-70
2021/03/07 08:17:58;;;;;;;;;;;;;;;18.05;66.23;101467.56;5089428;28;1189;-71
2021/03/07 08:20:37;;;;;;;;;;;;;;;18.05;66.43;101462.28;5088438;28;1220;-71
2021/03/07 08:23:10;;;;;;;;;;;;;;;18.04;66.10;101464.06;5070448;28;1914;-73
2021/03/07 08:25:45;;;;;;;;;;;;;;;18.01;66.19;101465.06;5070845;28;1269;-72
2021/03/07 08:28:30;;;;;;;;;;;;;;;17.99;66.49;101464.25;5089319;28;1199;-75
2021/03/07 08:31:04;;;;;;;;;;;;;;;17.97;67.25;101466.09;5089060;28;1292;-72
2021/03/07 08:33:40;;;;;;;;;;;;;;;18.02;66.76;101466.75;5089404;28;766;-69
2021/03/07 08:36:18;;;;;;;;;;;;;;;18.09;66.95;101467.34;5089279;28;1383;-68
2021/03/07 08:38:53;;;;;;;;;;;;;;;18.06;66.91;101463.97;5088921;28;862;-74
2021/03/07 08:41:23;;;;;;;;;;;;;;;18.05;67.10;101459.66;5071003;28;1225;-76
2021/03/07 08:43:51;;;;;;;;;;;;;;;18.12;66.86;101461.09;5071014;28;2015;-78
2021/03/07 08:46:25;;;;;;;;;;;;;;;18.18;66.96;101453.75;5071247;28;1229;-73
2021/03/07 08:48:53;;;;;;;;;;;;;;;18.16;67.26;101452.13;5081600;28;1087;-68
2021/03/07 08:51:31;;;;;;;;;;;;;;;18.18;66.89;101443.22;5083427;28;1276;-70
2021/03/07 08:54:05;;;;;;;;;;;;;;;18.27;67.36;101441.97;5067731;28;1334;-75
2021/03/07 08:56:34;;;;;;;;;;;;;;;18.39;67.60;101444.91;5069236;28;1331;-70
2021/03/07 08:59:01;;;;;;;;;;;;;;;18.36;67.92;101439.78;5085021;28;1018;-68
2021/03/07 09:01:27;;;;;;;;;;;;;;;18.37;67.43;101435.34;5088769;28;1224;-74
2021/03/07 09:03:54;;;;;;;;;;;;;;;18.35;67.79;101431.94;5072613;28;1910;-73
2021/03/07 09:06:21;;;;;;;;;;;;;;;18.32;67.92;101432.94;5050567;28;1215;-73
2021/03/07 09:08:47;;;;;;;;;;;;;;;18.31;67.80;101425.06;5068420;28;1150;-69
2021/03/07 09:11:13;;;;;;;;;;;;;;;18.33;67.86;101423.25;5065212;28;1400;-77
2021/03/07 09:13:48;;;;;;;;;;;;;;;18.34;67.96;101419.66;5048358;28;1048;-73
2021/03/07 09:16:15;;;;;;;;;;;;;;;18.31;68.20;101414.53;5048605;28;1256;-75
2021/03/07 09:18:42;;;;;;;;;;;;;;;18.37;68.30;101417.75;5043898;28;1277;-73
2021/03/07 09:21:17;;;;;;;;;;;;;;;18.42;67.67;101410.47;5068524;28;1300;-72
2021/03/07 09:23:45;;;;;;;;;;;;;;;18.49;67.60;101409.31;5082385;28;1926;-77
2021/03/07 09:26:19;;;;;;;;;;;;;;;18.58;67.41;101405.41;5051185;28;1262;-72
2021/03/07 09:28:52;;;;;;;;;;;;;;;18.59;67.10;101404.47;5062802;28;1338;-78
2021/03/07 09:31:31;;;;;;;;;;;;;;;18.58;67.37;101402.75;5030595;28;1275;-78
2021/03/07 09:33:59;;;;;;;;;;;;;;;18.51;67.42;101396.06;5046568;28;881;-75
2021/03/07 09:36:26;;;;;;;;;;;;;;;18.46;67.64;101398.00;5050409;28;1323;-75
2021/03/07 09:38:54;;;;;;;;;;;;;;;18.49;67.21;101393.47;5052909;28;1074;-73
2021/03/07 09:41:31;;;;;;;;;;;;;;;18.47;66.54;101394.47;5030222;28;1274;-70
2021/03/07 09:43:59;;;;;;;;;;;;;;;18.50;66.26;101402.25;5064443;28;1993;-70
2021/03/07 09:46:26;;;;;;;;;;;;;;;18.50;65.97;101399.63;5068207;28;1177;-68
2021/03/07 09:48:58;;;;;;;;;;;;;;;18.53;65.77;101404.75;5050241;28;1083;-70
2021/03/07 09:51:27;;;;;;;;;;;;;;;18.59;67.18;101401.84;5068331;28;1331;-69
2021/03/07 09:53:53;;;;;;;;;;;;;;;18.85;66.71;101411.16;5064965;28;1145;-74
2021/03/07 09:56:25;;;;;;;;;;;;;;;18.72;67.19;101405.63;5051770;28;1284;-69
2021/03/07 09:58:52;;;;;;;;;;;;;;;18.63;67.20;101407.84;5066600;28;1048;-71
2021/03/07 10:01:19;;;;;;;;;;;;;;;18.63;67.03;101405.19;5054176;28;1244;-71
2021/03/07 10:03:45;;;;;;;;;;;;;;;18.62;67.17;101401.69;5067718;28;1906;-72
2021/03/07 10:06:12;;;;;;;;;;;;;;;18.67;67.12;101404.97;5067611;28;1338;-69
2021/03/07 10:08:39;;;;;;;;;;;;;;;18.67;67.08;101410.25;5065905;28;1037;-68
2021/03/07 10:11:06;;;;;;;;;;;;;;;18.63;67.00;101411.34;5074053;28;1375;-71
2021/03/07 10:13:33;;;;;;;;;;;;;;;18.61;67.07;101417.59;5092441;28;1059;-74
2021/03/07 10:15:59;;;;;;;;;;;;;;;18.68;67.16;101419.88;5092021;28;1205;-68
2021/03/07 10:18:33;;;;;;;;;;;;;;;18.75;66.50;101429.25;5073437;28;1424;-70
2021/03/07 10:20:59;;;;;;;;;;;;;;;18.86;66.48;101413.75;5092359;28;1299;-75
2021/03/07 10:23:30;;;;;;;;;;;;;;;18.71;66.06;101417.09;5100873;28;1909;-78
2021/03/07 10:25:59;;;;;;;;;;;;;;;18.62;66.60;101412.25;5107439;28;1412;-79
2021/03/07 10:28:33;;;;;;;;;;;;;;;18.55;65.89;101413.44;5115297;28;1024;-78
2021/03/07 10:31:10;;;;;;;;;;;;;;;18.52;65.86;101405.69;5113913;28;1240;-77
2021/03/07 10:33:39;;;;;;;;;;;;;;;18.50;65.48;101405.75;5085546;28;1036;-76
2021/03/07 10:36:06;;;;;;;;;;;;;;;18.61;64.86;101402.63;5092216;28;1214;-72
2021/03/07 10:38:35;;;;;;;;;;;;;;;18.53;61.70;101405.63;5044557;28;1366;-71
2021/03/07 10:41:20;;;;;;;;;;;;;;;18.50;63.39;101404.91;5071464;28;1216;-73
2021/03/07 10:43:51;;;;;;;;;;;;;;;18.46;64.28;101395.38;5071521;28;1914;-72
2021/03/07 10:46:26;;;;;;;;;;;;;;;18.44;64.11;101394.59;5071170;28;1288;-72
2021/03/07 10:49:04;;;;;;;;;;;;;;;18.43;64.45;101391.09;5087745;28;1028;-72
2021/03/07 10:51:31;;;;;;;;;;;;;;;18.43;63.96;101393.72;5091225;28;1406;-73
2021/03/07 10:53:57;;;;;;;;;;;;;;;18.42;64.09;101385.91;5091162;28;1075;-74
2021/03/07 10:56:28;;;;;;;;;;;;;;;18.40;63.77;101385.97;5073393;28;1248;-72
2021/03/07 10:58:55;;;;;;;;;;;;;;;18.39;63.82;101386.03;5091433;28;833;-72
2021/03/07 11:01:21;;;;;;;;;;;;;;;18.37;64.00;101379.97;5072949;28;1305;-72
2021/03/07 11:03:48;;;;;;;;;;;;;;;18.35;64.36;101384.47;5091059;28;1929;-73
2021/03/07 11:06:15;;;;;;;;;;;;;;;18.33;64.53;101381.88;5091042;28;1323;-72
2021/03/07 11:08:41;;;;;;;;;;;;;;;18.33;64.42;101375.78;5090959;28;785;-73
2021/03/07 11:11:08;;;;;;;;;;;;;;;18.30;64.58;101386.47;5072622;28;1542;-74
2021/03/07 11:13:34;;;;;;;;;;;;;;;18.32;64.61;101374.06;5090975;28;849;-73
2021/03/07 11:16:00;;;;;;;;;;;;;;;18.31;64.69;101367.06;5055790;28;1318;-75
2021/03/07 11:18:27;;;;;;;;;;;;;;;18.30;64.88;101365.38;5090666;28;845;-73
2021/03/07 11:20:54;;;;;;;;;;;;;;;18.27;64.62;101362.88;5090836;28;1299;-74
2021/03/07 11:23:21;;;;;;;;;;;;;;;18.28;64.69;101354.00;5091161;28;1905;-72
2021/03/07 11:25:48;;;;;;;;;;;;;;;18.27;64.33;101357.59;5072104;28;1327;-72
2021/03/07 11:28:14;;;;;;;;;;;;;;;18.25;64.37;101359.41;5072362;28;1674;-73
2021/03/07 11:30:41;;;;;;;;;;;;;;;18.27;64.50;101358.41;5090606;28;1213;-73
2021/03/07 11:33:08;;;;;;;;;;;;;;;18.20;64.59;101357.00;5069651;28;1121;-73
2021/03/07 11:35:34;;;;;;;;;;;;;;;18.17;64.33;101351.88;5052005;28;1276;-75
2021/03/07 11:38:00;;;;;;;;;;;;;;;18.16;64.46;101346.66;5071577;28;1407;-74
2021/03/07 11:40:27;;;;;;;;;;;;;;;18.14;64.66;101337.97;5089873;28;1383;-72
2021/03/07 11:42:54;;;;;;;;;;;;;;;18.13;64.57;101336.25;5072188;28;988;-73
2021/03/07 11:45:20;;;;;;;;;;;;;;;18.11;64.72;101332.81;5070005;28;1913;-73
2021/03/07 11:47:47;;;;;;;;;;;;;;;18.10;64.71;101331.09;5063089;28;1272;-73
2021/03/07 11:50:13;;;;;;;;;;;;;;;18.07;64.72;101332.09;5070139;28;1320;-73
2021/03/07 11:52:40;;;;;;;;;;;;;;;18.08;64.62;101333.81;5068614;28;1089;-74
2021/03/07 11:55:06;;;;;;;;;;;;;;;18.07;64.64;101333.88;5090711;28;1248;-74
2021/03/07 11:57:34;;;;;;;;;;;;;;;18.15;65.35;101326.50;5090076;28;1062;-78
2021/03/07 12:00:01;;;;;;;;;;;;;;;18.24;65.36;101328.72;5089640;28;1542;-75
2021/03/07 12:02:27;;;;;;;;;;;;;;;18.25;65.32;101331.28;5092986;28;1685;-77
2021/03/07 12:04:53;;;;;;;;;;;;;;;18.25;64.71;101330.41;5088906;28;1983;-74
2021/03/07 12:07:19;;;;;;;;;;;;;;;18.18;64.98;101316.66;5082792;28;1395;-77
2021/03/07 12:09:46;;;;;;;;;;;;;;;18.24;65.24;101323.44;5066041;28;1260;-75
2021/03/07 12:12:13;;;;;;;;;;;;;;;18.24;64.91;101326.09;5080559;28;1356;-74
2021/03/07 12:14:40;;;;;;;;;;;;;;;18.23;64.74;101311.19;5085963;28;1173;-76
2021/03/07 12:17:07;;;;;;;;;;;;;;;18.24;64.88;101312.91;5099961;28;1240;-75
2021/03/07 12:19:33;;;;;;;;;;;;;;;18.24;64.84;101305.00;5092668;28;1152;-77
2021/03/07 12:22:00;;;;;;;;;;;;;;;18.24;64.84;101297.06;5099655;28;1533;-76
2021/03/07 12:24:28;;;;;;;;;;;;;;;18.34;65.34;101293.94;5108035;28;1968;-76
2021/03/07 12:26:55;;;;;;;;;;;;;;;18.34;65.46;101293.06;5107447;28;1220;-76
2021/03/07 12:29:21;;;;;;;;;;;;;;;18.26;64.86;101287.31;5107951;28;1098;-78
2021/03/07 12:31:48;;;;;;;;;;;;;;;18.22;65.11;101288.34;5107327;28;1201;-77
2021/03/07 12:34:14;;;;;;;;;;;;;;;18.17;65.13;101285.09;5107915;28;860;-78
2021/03/07 12:36:41;;;;;;;;;;;;;;;18.15;65.40;101287.78;5108247;28;1208;-77
2021/03/07 12:39:07;;;;;;;;;;;;;;;18.13;65.80;101278.22;5090206;28;643;-77
2021/03/07 12:41:33;;;;;;;;;;;;;;;18.13;66.03;101272.97;5109699;28;1314;-77
2021/03/07 12:44:00;;;;;;;;;;;;;;;18.11;66.29;101270.41;5109533;28;1975;-78
2021/03/07 12:46:26;;;;;;;;;;;;;;;18.10;66.36;101267.81;5096442;28;1220;-79
2021/03/07 12:48:52;;;;;;;;;;;;;;;18.08;66.34;101269.69;5069051;28;1106;-78
2021/03/07 12:51:19;;;;;;;;;;;;;;;18.06;66.12;101264.47;5068751;28;1225;-78
2021/03/07 12:53:45;;;;;;;;;;;;;;;18.04;65.93;101261.06;5050810;28;786;-77
2021/03/07 12:56:11;;;;;;;;;;;;;;;18.02;65.95;101255.00;5068522;28;1240;-77